createdAt,value
2023-02-22T00:00:43.084Z,98.59
2023-02-22T00:03:12.318Z,98.81
2023-02-22T00:05:39.340Z,98.87
2023-02-22T00:08:09.361Z,98.69
2023-02-22T00:10:38.372Z,98.56
2023-02-22T00:13:07.525Z,98.46
2023-02-22T00:15:34.898Z,98.33
2023-02-22T00:18:02.222Z,98.23
2023-02-22T00:20:28.768Z,98.06
2023-02-22T00:22:56.094Z,98.00
2023-02-22T00:25:25.210Z,98.49
2023-02-22T00:27:52.976Z,98.54
2023-02-22T00:30:26.910Z,98.34
2023-02-22T00:32:55.906Z,98.43
2023-02-22T00:35:28.434Z,98.40
2023-02-22T00:37:57.742Z,98.64
2023-02-22T00:40:33.302Z,98.26
2023-02-22T00:43:02.101Z,98.16
2023-02-22T00:45:31.167Z,98.41
2023-02-22T00:47:58.873Z,98.63
2023-02-22T00:50:30.720Z,98.62
2023-02-22T00:52:59.367Z,98.54
2023-02-22T00:55:29.276Z,98.86
2023-02-22T00:57:56.124Z,98.63
2023-02-22T01:00:34.602Z,98.59
2023-02-22T01:03:06.746Z,98.74
2023-02-22T01:05:33.906Z,98.67
2023-02-22T01:08:01.999Z,98.76
2023-02-22T01:10:30.640Z,98.87
2023-02-22T01:12:57.994Z,98.50
2023-02-22T01:15:28.974Z,99.00
2023-02-22T01:17:55.793Z,98.88
2023-02-22T01:20:23.132Z,98.90
2023-02-22T01:22:51.776Z,98.83
2023-02-22T01:25:24.419Z,98.78
2023-02-22T01:27:51.470Z,99.08
2023-02-22T01:30:24.111Z,98.66
2023-02-22T01:32:51.472Z,98.97
2023-02-22T01:35:23.176Z,99.20
2023-02-22T01:37:49.674Z,98.89
2023-02-22T01:40:29.596Z,99.04
2023-02-22T01:43:00.399Z,99.27
2023-02-22T01:45:29.991Z,99.16
2023-02-22T01:48:02.174Z,99.04
2023-02-22T01:50:31.034Z,99.17
2023-02-22T01:52:58.132Z,98.84
2023-02-22T01:55:25.550Z,98.57
2023-02-22T01:58:01.767Z,98.53
2023-02-22T02:00:28.257Z,97.89
2023-02-22T02:02:59.807Z,98.49
2023-02-22T02:05:28.170Z,98.15
2023-02-22T02:07:54.616Z,98.51
2023-02-22T02:10:21.586Z,98.34
2023-02-22T02:12:50.613Z,98.19
2023-02-22T02:15:25.267Z,98.22
2023-02-22T02:17:54.484Z,98.71
2023-02-22T02:20:57.069Z,98.38
2023-02-22T02:23:51.046Z,98.34
2023-02-22T02:26:23.438Z,98.75
2023-02-22T02:29:14.452Z,98.61
2023-02-22T02:32:18.110Z,98.53
2023-02-22T02:35:23.136Z,98.10
2023-02-22T02:38:04.554Z,98.33
2023-02-22T02:40:45.165Z,98.40
2023-02-22T02:43:21.533Z,98.62
2023-02-22T02:46:06.085Z,98.49
2023-02-22T02:48:34.868Z,98.38
2023-02-22T02:51:05.715Z,98.01
2023-02-22T02:53:38.958Z,98.60
2023-02-22T02:56:06.097Z,98.59
2023-02-22T02:58:32.569Z,98.69
2023-02-22T03:01:04.504Z,98.38
2023-02-22T03:03:43.161Z,98.34
2023-02-22T03:06:44.186Z,97.96
2023-02-22T03:09:22.450Z,98.27
2023-02-22T03:12:19.152Z,98.42
2023-02-22T03:15:02.949Z,98.17
2023-02-22T03:17:51.496Z,98.24
2023-02-22T03:20:32.039Z,98.83
2023-02-22T03:23:10.456Z,98.75
2023-02-22T03:25:47.313Z,99.00
2023-02-22T03:28:17.411Z,98.76
2023-02-22T03:31:07.729Z,98.38
2023-02-22T03:33:50.606Z,99.16
2023-02-22T03:36:24.855Z,99.04
2023-02-22T03:38:55.547Z,98.65
2023-02-22T03:41:25.366Z,98.91
2023-02-22T03:44:04.356Z,98.98
2023-02-22T03:46:32.669Z,98.86
2023-02-22T03:49:04.744Z,99.46
2023-02-22T03:51:31.298Z,99.26
2023-02-22T03:53:57.934Z,99.22
2023-02-22T03:56:35.629Z,98.94
2023-02-22T03:59:10.816Z,99.03
2023-02-22T04:01:37.474Z,99.18
2023-02-22T04:04:04.998Z,99.71
2023-02-22T04:06:31.482Z,99.21
2023-02-22T04:08:57.902Z,99.58
2023-02-22T04:11:24.432Z,99.89
2023-02-22T04:13:50.890Z,99.38
2023-02-22T04:16:17.503Z,99.91
2023-02-22T04:18:44.095Z,100.00
2023-02-22T04:21:10.475Z,99.97
2023-02-22T04:23:36.988Z,100.00
2023-02-22T04:26:03.523Z,100.00
2023-02-22T04:28:30.017Z,100.00
2023-02-22T04:30:56.498Z,100.00
2023-02-22T04:33:22.978Z,100.00
2023-02-22T04:35:49.604Z,100.00
2023-02-22T04:38:16.007Z,100.00
2023-02-22T04:40:42.603Z,100.00
2023-02-22T04:43:09.124Z,100.00
2023-02-22T04:45:36.047Z,100.00
2023-02-22T04:48:02.654Z,100.00
2023-02-22T04:50:29.383Z,100.00
2023-02-22T04:52:56.405Z,100.00
2023-02-22T04:55:22.813Z,100.00
2023-02-22T04:57:49.293Z,100.00
2023-02-22T05:00:17.953Z,100.00
2023-02-22T05:02:45.450Z,100.00
2023-02-22T05:05:17.657Z,100.00
2023-02-22T05:07:44.484Z,100.00
2023-02-22T05:10:36.679Z,100.00
2023-02-22T05:13:04.189Z,100.00
2023-02-22T05:15:30.716Z,100.00
2023-02-22T05:17:57.357Z,100.00
2023-02-22T05:20:30.477Z,100.00
2023-02-22T05:22:59.076Z,100.00
2023-02-22T05:25:29.500Z,100.00
2023-02-22T05:28:00.247Z,100.00
2023-02-22T05:30:30.704Z,100.00
2023-02-22T05:32:57.202Z,100.00
2023-02-22T05:35:23.966Z,100.00
2023-02-22T05:37:50.940Z,100.00
2023-02-22T05:40:25.274Z,100.00
2023-02-22T05:42:53.310Z,100.00
2023-02-22T05:45:22.139Z,100.00
2023-02-22T05:47:49.014Z,100.00
2023-02-22T05:50:16.601Z,100.00
2023-02-22T05:52:43.014Z,100.00
2023-02-22T05:55:11.300Z,100.00
2023-02-22T05:57:37.728Z,100.00
2023-02-22T06:00:06.894Z,100.00
2023-02-22T06:02:33.901Z,100.00
2023-02-22T06:05:00.637Z,100.00
2023-02-22T06:07:27.410Z,100.00
2023-02-22T06:09:53.949Z,100.00
2023-02-22T06:12:20.620Z,100.00
2023-02-22T06:14:49.805Z,100.00
2023-02-22T06:17:19.714Z,100.00
2023-02-22T06:19:47.357Z,100.00
2023-02-22T06:22:19.220Z,100.00
2023-02-22T06:24:45.931Z,100.00
2023-02-22T06:27:12.410Z,100.00
2023-02-22T06:29:41.333Z,100.00
2023-02-22T06:32:08.118Z,100.00
2023-02-22T06:34:34.721Z,100.00
2023-02-22T06:37:01.134Z,100.00
2023-02-22T06:39:36.328Z,100.00
2023-02-22T06:42:02.943Z,100.00
2023-02-22T06:44:29.509Z,100.00
2023-02-22T06:46:56.593Z,100.00
2023-02-22T06:49:22.975Z,100.00
2023-02-22T06:51:49.439Z,100.00
2023-02-22T06:54:16.093Z,100.00
2023-02-22T06:56:42.577Z,100.00
2023-02-22T06:59:09.085Z,100.00
2023-02-22T07:01:36.091Z,100.00
2023-02-22T07:04:02.856Z,100.00
2023-02-22T07:06:29.490Z,100.00
2023-02-22T07:08:55.975Z,100.00
2023-02-22T07:11:22.499Z,100.00
2023-02-22T07:13:49.053Z,100.00
2023-02-22T07:16:15.628Z,100.00
2023-02-22T07:18:43.413Z,100.00
2023-02-22T07:21:10.871Z,100.00
2023-02-22T07:23:37.834Z,100.00
2023-02-22T07:26:05.484Z,100.00
2023-02-22T07:28:32.062Z,100.00
2023-02-22T07:30:58.964Z,100.00
2023-02-22T07:33:25.860Z,100.00
2023-02-22T07:35:52.328Z,100.00
2023-02-22T07:38:20.830Z,100.00
2023-02-22T07:40:47.336Z,100.00
2023-02-22T07:43:23.803Z,100.00
2023-02-22T07:45:52.788Z,100.00
2023-02-22T07:48:21.646Z,100.00
2023-02-22T07:50:48.942Z,100.00
2023-02-22T07:53:18.389Z,100.00
2023-02-22T07:55:44.912Z,100.00
2023-02-22T07:58:17.088Z,100.00
2023-02-22T08:00:44.244Z,100.00
2023-02-22T08:03:13.828Z,100.00
2023-02-22T08:05:44.866Z,100.00
2023-02-22T08:08:18.183Z,100.00
2023-02-22T08:10:47.410Z,100.00
2023-02-22T08:13:14.177Z,100.00
2023-02-22T08:15:42.105Z,100.00
2023-02-22T08:18:12.095Z,100.00
2023-02-22T08:20:40.612Z,100.00
2023-02-22T08:23:07.936Z,100.00
2023-02-22T08:25:34.928Z,100.00
2023-02-22T08:28:04.945Z,100.00
2023-02-22T08:30:32.427Z,100.00
2023-02-22T08:32:59.767Z,100.00
2023-02-22T08:35:27.655Z,100.00
2023-02-22T08:37:58.535Z,100.00
2023-02-22T08:40:27.976Z,100.00
2023-02-22T08:42:55.037Z,100.00
2023-02-22T08:45:21.556Z,100.00
2023-02-22T08:47:48.206Z,100.00
2023-02-22T08:50:28.634Z,100.00
2023-02-22T08:52:58.641Z,100.00
2023-02-22T08:55:28.121Z,100.00
2023-02-22T08:57:54.477Z,100.00
2023-02-22T09:00:28.825Z,100.00
2023-02-22T09:03:05.535Z,100.00
2023-02-22T09:05:33.005Z,100.00
2023-02-22T09:08:00.757Z,100.00
2023-02-22T09:10:31.452Z,100.00
2023-02-22T09:15:51.516Z,100.00
2023-02-22T09:18:18.284Z,100.00
2023-02-22T09:20:45.230Z,100.00
2023-02-22T09:23:14.563Z,100.00
2023-02-22T09:25:41.321Z,100.00
2023-02-22T09:28:07.950Z,100.00
2023-02-22T09:30:36.404Z,100.00
2023-02-22T09:33:12.447Z,100.00
2023-02-22T09:35:46.649Z,100.00
2023-02-22T09:38:16.824Z,100.00
2023-02-22T09:41:00.003Z,100.00
2023-02-22T09:43:53.636Z,100.00
2023-02-22T09:46:23.189Z,100.00
2023-02-22T09:49:22.339Z,100.00
2023-02-22T09:51:52.652Z,100.00
2023-02-22T09:54:36.332Z,100.00
2023-02-22T09:57:09.028Z,100.00
2023-02-22T09:59:42.783Z,98.77
2023-02-22T10:02:24.815Z,98.43
2023-02-22T10:05:05.863Z,98.22
2023-02-22T10:07:39.174Z,97.81
2023-02-22T10:10:07.672Z,96.76
2023-02-22T10:12:40.776Z,96.17
2023-02-22T10:15:34.560Z,94.88
2023-02-22T10:18:42.803Z,95.01
2023-02-22T10:21:20.325Z,95.05
2023-02-22T10:23:58.629Z,93.45
2023-02-22T10:26:33.092Z,92.10
2023-02-22T10:29:02.718Z,91.88
2023-02-22T10:31:35.853Z,91.21
2023-02-22T10:34:05.791Z,89.80
2023-02-22T10:36:34.366Z,87.80
2023-02-22T10:39:27.138Z,89.09
2023-02-22T10:41:58.069Z,89.45
2023-02-22T10:44:25.235Z,88.83
2023-02-22T10:46:53.709Z,89.56
2023-02-22T10:49:23.839Z,88.86
2023-02-22T10:52:01.463Z,88.98
2023-02-22T10:54:36.839Z,89.08
2023-02-22T10:57:04.025Z,88.04
2023-02-22T10:59:45.238Z,88.44
2023-02-22T11:02:30.823Z,87.92
2023-02-22T11:05:00.370Z,88.31
2023-02-22T11:07:30.521Z,88.48
2023-02-22T11:10:03.410Z,88.74
2023-02-22T11:12:38.463Z,88.12
2023-02-22T11:15:30.339Z,88.05
2023-02-22T11:18:01.198Z,88.21
2023-02-22T11:20:34.616Z,88.73
2023-02-22T11:23:03.532Z,88.76
2023-02-22T11:25:42.648Z,88.92
2023-02-22T11:28:15.781Z,89.08
2023-02-22T11:30:44.804Z,89.18
2023-02-22T11:33:17.341Z,88.96
2023-02-22T11:35:58.410Z,88.98
2023-02-22T11:38:33.413Z,87.69
2023-02-22T11:41:14.806Z,86.96
2023-02-22T11:43:43.607Z,87.59
2023-02-22T11:46:15.429Z,87.58
2023-02-22T11:48:55.626Z,87.22
2023-02-22T11:51:34.410Z,87.21
2023-02-22T11:54:25.458Z,86.45
2023-02-22T11:56:55.723Z,86.68
2023-02-22T11:59:41.008Z,86.63
2023-02-22T12:02:56.558Z,86.08
2023-02-22T12:05:59.702Z,86.40
2023-02-22T12:08:44.489Z,86.96
2023-02-22T12:11:27.569Z,87.42
2023-02-22T12:14:02.856Z,87.26
2023-02-22T12:16:45.953Z,87.31
2023-02-22T12:19:30.842Z,87.51
2023-02-22T12:22:02.583Z,88.13
2023-02-22T12:24:44.586Z,88.53
2023-02-22T12:27:20.645Z,88.33
2023-02-22T12:29:53.164Z,88.51
2023-02-22T12:32:35.386Z,89.11
2023-02-22T12:35:11.793Z,89.15
2023-02-22T12:38:16.024Z,88.45
2023-02-22T12:41:09.437Z,88.21
2023-02-22T12:43:51.871Z,87.67
2023-02-22T12:46:33.912Z,87.56
2023-02-22T12:49:19.533Z,87.03
2023-02-22T12:52:20.860Z,86.64
2023-02-22T12:55:13.029Z,86.08
2023-02-22T12:58:07.735Z,86.30
2023-02-22T13:01:07.132Z,85.51
2023-02-22T13:03:40.390Z,85.18
2023-02-22T13:06:25.873Z,84.94
2023-02-22T13:08:58.296Z,85.02
2023-02-22T13:11:40.965Z,85.25
2023-02-22T13:14:50.013Z,84.70
2023-02-22T13:17:29.271Z,85.41
2023-02-22T13:20:22.204Z,85.16
2023-02-22T13:23:07.376Z,84.96
2023-02-22T13:25:47.183Z,85.30
2023-02-22T13:28:29.270Z,84.79
2023-02-22T13:31:09.309Z,85.05
2023-02-22T13:33:47.853Z,84.41
2023-02-22T13:36:29.493Z,84.70
2023-02-22T13:39:15.692Z,85.05
2023-02-22T13:42:14.133Z,85.08
2023-02-22T13:44:49.660Z,84.87
2023-02-22T13:47:28.159Z,84.70
2023-02-22T13:50:22.412Z,84.35
2023-02-22T13:52:52.028Z,84.23
2023-02-22T13:55:28.319Z,84.49
2023-02-22T13:58:04.902Z,84.54
2023-02-22T14:00:57.644Z,84.27
2023-02-22T14:03:40.702Z,84.28
2023-02-22T14:06:32.187Z,84.82
2023-02-22T14:09:19.065Z,84.35
2023-02-22T14:11:47.876Z,83.92
2023-02-22T14:14:17.860Z,84.26
2023-02-22T14:16:45.166Z,84.43
2023-02-22T14:19:23.796Z,84.54
2023-02-22T14:22:02.065Z,84.57
2023-02-22T14:24:40.368Z,85.08
2023-02-22T14:27:06.836Z,85.26
2023-02-22T14:29:33.420Z,85.03
2023-02-22T14:32:11.143Z,85.16
2023-02-22T14:34:44.336Z,85.46
2023-02-22T14:37:26.353Z,85.31
2023-02-22T14:40:02.413Z,85.84
2023-02-22T14:42:35.930Z,85.62
2023-02-22T14:45:14.254Z,85.40
2023-02-22T14:47:54.637Z,85.49
2023-02-22T14:50:27.839Z,85.72
2023-02-22T14:53:29.646Z,85.39
2023-02-22T14:56:04.696Z,85.76
2023-02-22T14:58:57.704Z,85.39
2023-02-22T15:01:48.876Z,85.66
2023-02-22T15:04:32.978Z,85.96
2023-02-22T15:07:07.591Z,86.20
2023-02-22T15:09:37.508Z,86.03
2023-02-22T15:12:04.012Z,86.07
2023-02-22T15:14:39.124Z,86.25
2023-02-22T15:17:16.961Z,86.46
2023-02-22T15:19:43.938Z,86.64
2023-02-22T15:22:25.191Z,86.80
2023-02-22T15:25:01.502Z,87.42
2023-02-22T15:27:28.794Z,87.60
2023-02-22T15:30:05.018Z,87.44
2023-02-22T15:33:03.099Z,87.73
2023-02-22T15:35:33.352Z,87.87
2023-02-22T15:38:10.725Z,87.83
2023-02-22T15:40:42.907Z,88.08
2023-02-22T15:43:28.598Z,88.24
2023-02-22T15:45:56.354Z,88.73
2023-02-22T15:48:26.560Z,88.68
2023-02-22T15:51:13.882Z,88.63
2023-02-22T15:53:44.117Z,88.54
2023-02-22T15:56:16.964Z,88.34
2023-02-22T15:58:53.053Z,88.53
2023-02-22T16:01:20.879Z,88.61
2023-02-22T16:03:51.019Z,88.93
2023-02-22T16:06:33.521Z,89.04
2023-02-22T16:09:06.964Z,89.19
2023-02-22T16:11:45.494Z,89.76
2023-02-22T16:14:25.042Z,89.58
2023-02-22T16:17:14.152Z,90.24
2023-02-22T16:19:44.213Z,90.19
2023-02-22T16:22:26.988Z,90.37
2023-02-22T16:24:54.604Z,90.37
2023-02-22T16:27:24.558Z,90.09
2023-02-22T16:30:23.197Z,90.80
2023-02-22T16:32:51.828Z,90.13
2023-02-22T16:35:18.800Z,90.73
2023-02-22T16:37:54.899Z,90.37
2023-02-22T16:40:37.510Z,90.90
2023-02-22T16:43:11.987Z,90.95
2023-02-22T16:45:40.160Z,91.00
2023-02-22T16:48:19.834Z,91.23
2023-02-22T16:50:48.488Z,91.20
2023-02-22T16:53:20.105Z,91.72
2023-02-22T16:55:52.545Z,91.41
2023-02-22T16:58:19.270Z,91.49
2023-02-22T17:00:45.843Z,92.30
2023-02-22T17:03:18.051Z,92.28
2023-02-22T17:05:44.903Z,92.53
2023-02-22T17:08:11.580Z,92.18
2023-02-22T17:10:38.051Z,92.43
2023-02-22T17:13:22.976Z,92.41
2023-02-22T17:15:51.014Z,92.93
2023-02-22T17:18:23.084Z,92.88
2023-02-22T17:20:51.120Z,93.07
2023-02-22T17:23:18.842Z,93.36
2023-02-22T17:25:50.878Z,93.64
2023-02-22T17:28:17.374Z,93.44
2023-02-22T17:30:47.340Z,93.08
2023-02-22T17:33:17.154Z,93.48
2023-02-22T17:35:44.451Z,93.95
2023-02-22T17:38:10.902Z,93.56
2023-02-22T17:40:39.625Z,93.67
2023-02-22T17:43:08.916Z,93.31
2023-02-22T17:45:39.315Z,93.28
2023-02-22T17:48:06.156Z,94.20
2023-02-22T17:50:32.849Z,93.54
2023-02-22T17:53:02.487Z,93.39
2023-02-22T17:55:30.173Z,93.71
2023-02-22T17:58:00.464Z,93.83
2023-02-22T18:00:35.317Z,94.28
2023-02-22T18:03:07.510Z,94.49
2023-02-22T18:05:40.337Z,94.07
2023-02-22T18:08:07.383Z,94.48
2023-02-22T18:10:33.853Z,94.29
2023-02-22T18:13:02.158Z,94.54
2023-02-22T18:15:29.508Z,94.91
2023-02-22T18:17:56.309Z,94.26
2023-02-22T18:20:44.028Z,94.22
2023-02-22T18:23:16.790Z,94.56
2023-02-22T18:26:07.743Z,94.88
2023-02-22T18:28:36.544Z,94.51
2023-02-22T18:31:07.880Z,94.92
2023-02-22T18:33:34.468Z,94.81
2023-02-22T18:36:01.052Z,95.11
2023-02-22T18:38:27.885Z,95.03
2023-02-22T18:41:06.873Z,95.36
2023-02-22T18:43:36.731Z,95.46
2023-02-22T18:46:11.469Z,95.40
2023-02-22T18:48:38.649Z,95.43
2023-02-22T18:51:09.633Z,95.88
2023-02-22T18:53:38.001Z,95.58
2023-02-22T18:56:07.220Z,96.32
2023-02-22T18:58:40.934Z,96.02
2023-02-22T19:01:07.626Z,96.11
2023-02-22T19:03:38.285Z,96.52
2023-02-22T19:06:10.550Z,96.81
2023-02-22T19:08:42.651Z,96.67
2023-02-22T19:11:12.083Z,96.80
2023-02-22T19:13:38.689Z,96.54
2023-02-22T19:16:07.343Z,96.08
2023-02-22T19:18:34.109Z,96.60
2023-02-22T19:21:03.165Z,96.60
2023-02-22T19:23:34.925Z,96.65
2023-02-22T19:26:03.157Z,97.22
2023-02-22T19:28:34.327Z,97.03
2023-02-22T19:31:40.262Z,97.29
2023-02-22T19:34:10.915Z,97.21
2023-02-22T19:36:39.208Z,96.93
2023-02-22T19:39:05.845Z,97.21
2023-02-22T19:41:32.432Z,96.98
2023-02-22T19:43:59.277Z,96.61
2023-02-22T19:46:25.821Z,97.22
2023-02-22T19:48:55.152Z,97.02
2023-02-22T19:51:26.196Z,97.12
2023-02-22T19:54:05.327Z,97.24
2023-02-22T19:56:38.084Z,97.79
2023-02-22T19:59:09.540Z,98.20
2023-02-22T20:01:36.796Z,97.72
2023-02-22T20:04:06.119Z,97.38
2023-02-22T20:06:43.049Z,97.71
2023-02-22T20:09:14.028Z,97.39
2023-02-22T20:11:40.629Z,97.75
2023-02-22T20:14:07.109Z,98.10
2023-02-22T20:16:35.414Z,97.73
2023-02-22T20:19:09.166Z,98.22
2023-02-22T20:21:36.609Z,98.12
2023-02-22T20:24:06.910Z,97.98
2023-02-22T20:26:35.505Z,98.24
2023-02-22T20:29:04.258Z,98.32
2023-02-22T20:31:32.849Z,97.96
2023-02-22T20:34:00.977Z,98.05
2023-02-22T20:36:29.468Z,98.28
2023-02-22T20:38:59.135Z,98.19
2023-02-22T20:41:28.022Z,97.83
2023-02-22T20:43:55.913Z,97.97
2023-02-22T20:46:24.679Z,98.14
2023-02-22T20:48:58.577Z,98.30
2023-02-22T20:51:26.632Z,98.11
2023-02-22T20:53:53.961Z,98.22
2023-02-22T20:56:23.089Z,98.17
2023-02-22T20:58:53.399Z,97.87
2023-02-22T21:01:22.391Z,98.52
2023-02-22T21:03:49.947Z,98.51
2023-02-22T21:06:18.733Z,98.89
2023-02-22T21:08:49.194Z,98.36
2023-02-22T21:11:18.228Z,98.75
2023-02-22T21:13:45.122Z,98.96
2023-02-22T21:16:21.474Z,98.95
2023-02-22T21:18:53.985Z,98.77
2023-02-22T21:21:21.464Z,99.47
2023-02-22T21:23:50.500Z,99.14
2023-02-22T21:26:20.914Z,99.51
2023-02-22T21:28:51.152Z,99.05
2023-02-22T21:31:19.782Z,99.23
2023-02-22T21:33:53.047Z,99.11
2023-02-22T21:36:20.845Z,99.39
2023-02-22T21:38:53.481Z,99.41
2023-02-22T21:41:21.277Z,99.80
2023-02-22T21:43:51.808Z,99.68
2023-02-22T21:46:19.121Z,98.93
2023-02-22T21:48:48.757Z,99.31
2023-02-22T21:51:17.590Z,99.28
2023-02-22T21:53:48.761Z,99.35
2023-02-22T21:56:19.651Z,99.96
2023-02-22T21:58:47.529Z,99.89
2023-02-22T22:01:17.547Z,99.41
2023-02-22T22:03:45.319Z,100.00
2023-02-22T22:06:13.718Z,99.61
2023-02-22T22:08:43.168Z,99.90
2023-02-22T22:11:30.526Z,99.61
2023-02-22T22:13:58.144Z,99.63
2023-02-22T22:16:27.678Z,99.43
2023-02-22T22:18:55.346Z,99.48
2023-02-22T22:21:23.950Z,99.88
2023-02-22T22:23:54.489Z,99.55
2023-02-22T22:26:22.185Z,99.62
2023-02-22T22:28:51.987Z,99.46
2023-02-22T22:31:21.067Z,99.70
2023-02-22T22:33:47.861Z,99.39
2023-02-22T22:36:16.668Z,99.15
2023-02-22T22:38:46.909Z,99.25
2023-02-22T22:41:15.557Z,99.35
2023-02-22T22:43:56.517Z,99.52
2023-02-22T22:46:23.425Z,99.25
2023-02-22T22:48:58.421Z,99.51
2023-02-22T22:51:24.977Z,99.65
2023-02-22T22:53:51.969Z,99.37
2023-02-22T22:56:21.733Z,99.73
2023-02-22T22:58:54.186Z,99.44
2023-02-22T23:01:27.151Z,99.68
2023-02-22T23:03:55.619Z,99.59
2023-02-22T23:06:28.181Z,99.54
2023-02-22T23:09:19.064Z,99.35
2023-02-22T23:11:53.616Z,99.74
2023-02-22T23:14:24.215Z,99.58
2023-02-22T23:16:59.955Z,99.59
2023-02-22T23:19:26.577Z,99.79
2023-02-22T23:21:53.041Z,99.81
2023-02-22T23:24:21.193Z,99.68
2023-02-22T23:26:51.420Z,100.00
2023-02-22T23:29:28.061Z,99.46
2023-02-22T23:31:55.088Z,99.93
2023-02-22T23:34:23.329Z,100.00
2023-02-22T23:36:53.841Z,99.76
2023-02-22T23:39:23.207Z,99.95
2023-02-22T23:42:01.972Z,100.00
2023-02-22T23:44:28.982Z,100.00
2023-02-22T23:46:56.165Z,100.00
2023-02-22T23:49:35.544Z,100.00
2023-02-22T23:52:03.029Z,100.00
2023-02-22T23:54:36.287Z,99.97
2023-02-22T23:57:04.611Z,99.52
2023-02-22T23:59:32.167Z,100.00
